sensor_id;sensor_type;location;lat;lon;timestamp;P1;durP1;ratioP1;P2;durP2;ratioP2
11847;SDS011;5983;49.966;8.052;2022-08-21T12:06:04;4.67;;;2.00;;
11847;SDS011;5983;49.966;8.052;2022-08-21T12:08:35;7.40;;;2.53;;
11847;SDS011;5983;49.966;8.052;2022-08-21T12:11:05;4.00;;;2.00;;
11847;SDS011;5983;49.966;8.052;2022-08-21T12:13:35;3.00;;;1.80;;
11847;SDS011;5983;49.966;8.052;2022-08-21T12:16:06;4.80;;;1.97;;
11847;SDS011;5983;49.966;8.052;2022-08-21T12:18:38;8.80;;;2.30;;
11847;SDS011;5983;49.966;8.052;2022-08-21T12:21:19;4.10;;;1.60;;
11847;SDS011;5983;49.966;8.052;2022-08-21T12:24:00;3.27;;;1.80;;
11847;SDS011;5983;49.966;8.052;2022-08-21T12:26:50;7.93;;;2.37;;
11847;SDS011;5983;49.966;8.052;2022-08-21T12:29:22;4.57;;;1.90;;
11847;SDS011;5983;49.966;8.052;2022-08-21T12:31:54;2.23;;;1.73;;
11847;SDS011;5983;49.966;8.052;2022-08-21T12:34:30;5.27;;;2.13;;
11847;SDS011;5983;49.966;8.052;2022-08-21T12:37:04;6.00;;;2.30;;
11847;SDS011;5983;49.966;8.052;2022-08-21T12:39:44;4.73;;;2.20;;
11847;SDS011;5983;49.966;8.052;2022-08-21T12:42:16;8.03;;;2.00;;
11847;SDS011;5983;49.966;8.052;2022-08-21T12:44:49;3.20;;;1.57;;
11847;SDS011;5983;49.966;8.052;2022-08-21T12:47:24;4.30;;;2.00;;
11847;SDS011;5983;49.966;8.052;2022-08-21T12:49:59;3.90;;;1.33;;
11847;SDS011;5983;49.966;8.052;2022-08-21T12:52:34;2.93;;;1.60;;
11847;SDS011;5983;49.966;8.052;2022-08-21T12:55:13;2.30;;;1.53;;
11847;SDS011;5983;49.966;8.052;2022-08-21T12:57:44;3.37;;;1.73;;
11847;SDS011;5983;49.966;8.052;2022-08-21T13:00:12;4.17;;;1.60;;
11847;SDS011;5983;49.966;8.052;2022-08-21T13:02:47;2.83;;;1.60;;
11847;SDS011;5983;49.966;8.052;2022-08-21T13:05:19;3.33;;;1.70;;
11847;SDS011;5983;49.966;8.052;2022-08-21T13:07:55;1.97;;;1.23;;
11847;SDS011;5983;49.966;8.052;2022-08-21T13:10:24;2.80;;;1.53;;
11847;SDS011;5983;49.966;8.052;2022-08-21T13:12:55;3.60;;;1.70;;
11847;SDS011;5983;49.966;8.052;2022-08-21T13:15:26;2.77;;;1.60;;
11847;SDS011;5983;49.966;8.052;2022-08-21T13:17:57;3.60;;;1.80;;
11847;SDS011;5983;49.966;8.052;2022-08-21T13:20:28;3.53;;;1.70;;
11847;SDS011;5983;49.966;8.052;2022-08-21T13:22:59;4.23;;;1.73;;
11847;SDS011;5983;49.966;8.052;2022-08-21T13:25:27;4.13;;;1.57;;
11847;SDS011;5983;49.966;8.052;2022-08-21T13:28:04;3.43;;;1.60;;
11847;SDS011;5983;49.966;8.052;2022-08-21T13:30:38;2.67;;;1.30;;
11847;SDS011;5983;49.966;8.052;2022-08-21T13:33:08;5.60;;;2.23;;
11847;SDS011;5983;49.966;8.052;2022-08-21T13:35:45;5.93;;;2.10;;
11847;SDS011;5983;49.966;8.052;2022-08-21T13:38:17;2.70;;;1.50;;
11847;SDS011;5983;49.966;8.052;2022-08-21T13:40:53;4.10;;;1.70;;
11847;SDS011;5983;49.966;8.052;2022-08-21T13:43:26;5.47;;;1.70;;
11847;SDS011;5983;49.966;8.052;2022-08-21T13:45:57;3.10;;;1.90;;
11847;SDS011;5983;49.966;8.052;2022-08-21T13:48:30;4.80;;;2.07;;
11847;SDS011;5983;49.966;8.052;2022-08-21T13:51:01;5.50;;;2.13;;
11847;SDS011;5983;49.966;8.052;2022-08-21T13:53:32;1.67;;;1.23;;
11847;SDS011;5983;49.966;8.052;2022-08-21T13:56:03;3.00;;;1.57;;
11847;SDS011;5983;49.966;8.052;2022-08-21T13:58:43;3.13;;;1.80;;
11847;SDS011;5983;49.966;8.052;2022-08-21T14:01:17;3.60;;;1.40;;
11847;SDS011;5983;49.966;8.052;2022-08-21T14:03:49;7.67;;;1.97;;
11847;SDS011;5983;49.966;8.052;2022-08-21T14:06:19;3.53;;;1.80;;
11847;SDS011;5983;49.966;8.052;2022-08-21T14:08:52;2.37;;;1.40;;
11847;SDS011;5983;49.966;8.052;2022-08-21T14:11:25;2.93;;;1.47;;
11847;SDS011;5983;49.966;8.052;2022-08-21T14:13:59;3.17;;;1.37;;
11847;SDS011;5983;49.966;8.052;2022-08-21T14:16:40;3.93;;;1.40;;
11847;SDS011;5983;49.966;8.052;2022-08-21T14:19:15;4.37;;;1.70;;
11847;SDS011;5983;49.966;8.052;2022-08-21T14:21:46;3.30;;;1.40;;
11847;SDS011;5983;49.966;8.052;2022-08-21T14:24:24;3.70;;;1.70;;
11847;SDS011;5983;49.966;8.052;2022-08-21T14:26:55;3.17;;;1.27;;
11847;SDS011;5983;49.966;8.052;2022-08-21T14:29:32;3.83;;;1.47;;
11847;SDS011;5983;49.966;8.052;2022-08-21T14:32:08;3.33;;;1.67;;
11847;SDS011;5983;49.966;8.052;2022-08-21T14:34:39;2.27;;;1.20;;
11847;SDS011;5983;49.966;8.052;2022-08-21T14:37:06;3.17;;;1.20;;
11847;SDS011;5983;49.966;8.052;2022-08-21T14:39:35;4.07;;;1.40;;
11847;SDS011;5983;49.966;8.052;2022-08-21T14:42:03;3.53;;;1.40;;
11847;SDS011;5983;49.966;8.052;2022-08-21T14:44:31;3.73;;;1.43;;
11847;SDS011;5983;49.966;8.052;2022-08-21T14:46:58;3.80;;;1.83;;
11847;SDS011;5983;49.966;8.052;2022-08-21T14:49:26;3.63;;;1.50;;
11847;SDS011;5983;49.966;8.052;2022-08-21T14:51:55;2.57;;;1.30;;
11847;SDS011;5983;49.966;8.052;2022-08-21T14:54:23;1.90;;;1.07;;
11847;SDS011;5983;49.966;8.052;2022-08-21T14:56:52;3.33;;;1.40;;
11847;SDS011;5983;49.966;8.052;2022-08-21T14:59:19;2.80;;;1.40;;
11847;SDS011;5983;49.966;8.052;2022-08-21T15:01:51;3.80;;;1.27;;
11847;SDS011;5983;49.966;8.052;2022-08-21T15:04:49;2.13;;;1.10;;
11847;SDS011;5983;49.966;8.052;2022-08-21T15:07:17;3.10;;;1.50;;
11847;SDS011;5983;49.966;8.052;2022-08-21T15:10:01;1.60;;;1.20;;
11847;SDS011;5983;49.966;8.052;2022-08-21T15:12:35;2.03;;;1.17;;
11847;SDS011;5983;49.966;8.052;2022-08-21T15:15:25;3.50;;;1.50;;
11847;SDS011;5983;49.966;8.052;2022-08-21T15:18:05;2.90;;;1.50;;
11847;SDS011;5983;49.966;8.052;2022-08-21T15:20:34;3.97;;;1.70;;
11847;SDS011;5983;49.966;8.052;2022-08-21T15:23:11;1.63;;;0.93;;
11847;SDS011;5983;49.966;8.052;2022-08-21T15:25:40;3.37;;;1.07;;
11847;SDS011;5983;49.966;8.052;2022-08-21T15:28:35;3.90;;;1.70;;
11847;SDS011;5983;49.966;8.052;2022-08-21T15:31:10;3.13;;;1.33;;
11847;SDS011;5983;49.966;8.052;2022-08-21T15:33:37;3.83;;;1.30;;
11847;SDS011;5983;49.966;8.052;2022-08-21T15:36:04;1.73;;;1.30;;
11847;SDS011;5983;49.966;8.052;2022-08-21T15:38:34;2.93;;;1.47;;
11847;SDS011;5983;49.966;8.052;2022-08-21T15:41:07;1.67;;;1.10;;
11847;SDS011;5983;49.966;8.052;2022-08-21T15:43:37;1.97;;;0.97;;
11847;SDS011;5983;49.966;8.052;2022-08-21T15:46:10;2.77;;;1.40;;
11847;SDS011;5983;49.966;8.052;2022-08-21T15:48:40;4.97;;;1.43;;
11847;SDS011;5983;49.966;8.052;2022-08-21T15:51:11;3.77;;;2.10;;
11847;SDS011;5983;49.966;8.052;2022-08-21T15:53:40;2.53;;;1.43;;
11847;SDS011;5983;49.966;8.052;2022-08-21T15:56:10;5.83;;;1.73;;
11847;SDS011;5983;49.966;8.052;2022-08-21T15:58:48;5.80;;;1.70;;
11847;SDS011;5983;49.966;8.052;2022-08-21T16:01:16;2.87;;;1.40;;
11847;SDS011;5983;49.966;8.052;2022-08-21T16:03:45;3.67;;;1.40;;
11847;SDS011;5983;49.966;8.052;2022-08-21T16:06:18;3.40;;;1.30;;
11847;SDS011;5983;49.966;8.052;2022-08-21T16:08:45;2.17;;;1.30;;
11847;SDS011;5983;49.966;8.052;2022-08-21T16:11:12;2.13;;;1.20;;
11847;SDS011;5983;49.966;8.052;2022-08-21T16:13:43;2.17;;;1.20;;
11847;SDS011;5983;49.966;8.052;2022-08-21T16:16:14;6.00;;;1.60;;
11847;SDS011;5983;49.966;8.052;2022-08-21T16:18:45;3.47;;;1.20;;
11847;SDS011;5983;49.966;8.052;2022-08-21T16:21:13;3.70;;;1.73;;
11847;SDS011;5983;49.966;8.052;2022-08-21T16:23:41;4.10;;;1.90;;
11847;SDS011;5983;49.966;8.052;2022-08-21T16:26:09;4.80;;;1.80;;
11847;SDS011;5983;49.966;8.052;2022-08-21T16:28:39;3.77;;;1.23;;
11847;SDS011;5983;49.966;8.052;2022-08-21T16:31:10;2.30;;;1.33;;
11847;SDS011;5983;49.966;8.052;2022-08-21T16:33:41;4.57;;;1.70;;
11847;SDS011;5983;49.966;8.052;2022-08-21T16:36:12;2.10;;;1.20;;
11847;SDS011;5983;49.966;8.052;2022-08-21T16:38:39;3.97;;;1.40;;
11847;SDS011;5983;49.966;8.052;2022-08-21T16:41:09;3.30;;;1.57;;
11847;SDS011;5983;49.966;8.052;2022-08-21T16:43:40;3.47;;;1.43;;
11847;SDS011;5983;49.966;8.052;2022-08-21T16:46:09;2.00;;;1.10;;
11847;SDS011;5983;49.966;8.052;2022-08-21T16:48:40;2.43;;;1.40;;
11847;SDS011;5983;49.966;8.052;2022-08-21T16:51:09;2.37;;;1.40;;
11847;SDS011;5983;49.966;8.052;2022-08-21T16:53:37;2.23;;;1.20;;
11847;SDS011;5983;49.966;8.052;2022-08-21T16:56:04;3.17;;;1.30;;
11847;SDS011;5983;49.966;8.052;2022-08-21T16:58:34;3.83;;;1.40;;
11847;SDS011;5983;49.966;8.052;2022-08-21T17:01:05;2.17;;;1.30;;
11847;SDS011;5983;49.966;8.052;2022-08-21T17:03:36;3.60;;;1.17;;
11847;SDS011;5983;49.966;8.052;2022-08-21T17:06:06;3.00;;;1.40;;
11847;SDS011;5983;49.966;8.052;2022-08-21T17:08:35;2.67;;;1.27;;
11847;SDS011;5983;49.966;8.052;2022-08-21T17:11:03;2.13;;;1.13;;
11847;SDS011;5983;49.966;8.052;2022-08-21T17:13:34;2.00;;;1.30;;
11847;SDS011;5983;49.966;8.052;2022-08-21T17:16:01;2.20;;;1.20;;
11847;SDS011;5983;49.966;8.052;2022-08-21T17:18:29;3.47;;;1.47;;
11847;SDS011;5983;49.966;8.052;2022-08-21T17:20:57;2.60;;;1.30;;
11847;SDS011;5983;49.966;8.052;2022-08-21T17:23:24;1.70;;;0.90;;
11847;SDS011;5983;49.966;8.052;2022-08-21T17:25:51;3.60;;;1.03;;
11847;SDS011;5983;49.966;8.052;2022-08-21T17:28:22;2.10;;;0.90;;
11847;SDS011;5983;49.966;8.052;2022-08-21T17:30:53;1.70;;;1.17;;
11847;SDS011;5983;49.966;8.052;2022-08-21T17:33:23;1.83;;;1.03;;
11847;SDS011;5983;49.966;8.052;2022-08-21T17:35:53;1.30;;;0.80;;
11847;SDS011;5983;49.966;8.052;2022-08-21T17:38:21;1.53;;;0.90;;
11847;SDS011;5983;49.966;8.052;2022-08-21T17:40:48;2.03;;;1.10;;
11847;SDS011;5983;49.966;8.052;2022-08-21T17:43:16;2.03;;;1.00;;
11847;SDS011;5983;49.966;8.052;2022-08-21T17:45:43;2.20;;;1.80;;
11847;SDS011;5983;49.966;8.052;2022-08-21T17:48:11;4.53;;;2.37;;
11847;SDS011;5983;49.966;8.052;2022-08-21T17:50:38;2.60;;;1.50;;
11847;SDS011;5983;49.966;8.052;2022-08-21T17:53:06;2.93;;;1.00;;
11847;SDS011;5983;49.966;8.052;2022-08-21T17:55:35;2.10;;;1.17;;
11847;SDS011;5983;49.966;8.052;2022-08-21T17:58:02;2.13;;;0.80;;
11847;SDS011;5983;49.966;8.052;2022-08-21T18:00:30;2.57;;;1.00;;
11847;SDS011;5983;49.966;8.052;2022-08-21T18:03:02;2.03;;;0.97;;
11847;SDS011;5983;49.966;8.052;2022-08-21T18:05:38;1.67;;;1.00;;
11847;SDS011;5983;49.966;8.052;2022-08-21T18:08:06;2.60;;;0.90;;
11847;SDS011;5983;49.966;8.052;2022-08-21T18:10:36;0.97;;;0.87;;
11847;SDS011;5983;49.966;8.052;2022-08-21T18:13:09;2.03;;;1.03;;
11847;SDS011;5983;49.966;8.052;2022-08-21T18:15:40;3.53;;;1.20;;
11847;SDS011;5983;49.966;8.052;2022-08-21T18:18:10;2.70;;;1.30;;
11847;SDS011;5983;49.966;8.052;2022-08-21T18:20:37;3.77;;;1.33;;
11847;SDS011;5983;49.966;8.052;2022-08-21T18:23:04;2.87;;;1.30;;
11847;SDS011;5983;49.966;8.052;2022-08-21T18:25:31;2.47;;;1.20;;
11847;SDS011;5983;49.966;8.052;2022-08-21T18:28:00;2.50;;;0.90;;
11847;SDS011;5983;49.966;8.052;2022-08-21T18:30:32;3.03;;;0.90;;
11847;SDS011;5983;49.966;8.052;2022-08-21T18:33:03;2.00;;;1.00;;
11847;SDS011;5983;49.966;8.052;2022-08-21T18:35:30;4.13;;;1.17;;
11847;SDS011;5983;49.966;8.052;2022-08-21T18:38:00;2.90;;;1.10;;
11847;SDS011;5983;49.966;8.052;2022-08-21T18:40:36;2.40;;;0.90;;
11847;SDS011;5983;49.966;8.052;2022-08-21T18:43:09;1.73;;;0.90;;
11847;SDS011;5983;49.966;8.052;2022-08-21T18:45:38;3.17;;;1.20;;
11847;SDS011;5983;49.966;8.052;2022-08-21T18:48:07;1.87;;;0.80;;
11847;SDS011;5983;49.966;8.052;2022-08-21T18:50:38;4.73;;;1.40;;
11847;SDS011;5983;49.966;8.052;2022-08-21T18:53:09;5.23;;;1.30;;
11847;SDS011;5983;49.966;8.052;2022-08-21T18:55:38;4.40;;;1.43;;
11847;SDS011;5983;49.966;8.052;2022-08-21T18:58:10;3.90;;;1.00;;
11847;SDS011;5983;49.966;8.052;2022-08-21T19:00:39;4.43;;;1.40;;
11847;SDS011;5983;49.966;8.052;2022-08-21T19:03:11;4.67;;;1.40;;
11847;SDS011;5983;49.966;8.052;2022-08-21T19:05:39;15.00;;;1.80;;
11847;SDS011;5983;49.966;8.052;2022-08-21T19:08:08;8.10;;;1.63;;
11847;SDS011;5983;49.966;8.052;2022-08-21T19:10:36;6.37;;;1.40;;
11847;SDS011;5983;49.966;8.052;2022-08-21T19:13:05;5.07;;;1.40;;
11847;SDS011;5983;49.966;8.052;2022-08-21T19:15:34;1.93;;;1.00;;
11847;SDS011;5983;49.966;8.052;2022-08-21T19:18:04;4.77;;;1.67;;
11847;SDS011;5983;49.966;8.052;2022-08-21T19:20:38;7.07;;;1.87;;
11847;SDS011;5983;49.966;8.052;2022-08-21T19:23:06;2.37;;;1.10;;
11847;SDS011;5983;49.966;8.052;2022-08-21T19:25:36;3.43;;;1.00;;
11847;SDS011;5983;49.966;8.052;2022-08-21T19:28:06;2.90;;;1.03;;
11847;SDS011;5983;49.966;8.052;2022-08-21T19:30:40;2.70;;;1.20;;
11847;SDS011;5983;49.966;8.052;2022-08-21T19:33:11;4.40;;;1.30;;
11847;SDS011;5983;49.966;8.052;2022-08-21T19:35:50;4.27;;;1.50;;
11847;SDS011;5983;49.966;8.052;2022-08-21T19:38:17;6.10;;;1.40;;
11847;SDS011;5983;49.966;8.052;2022-08-21T19:40:44;2.63;;;1.20;;
11847;SDS011;5983;49.966;8.052;2022-08-21T19:43:11;4.30;;;1.27;;
11847;SDS011;5983;49.966;8.052;2022-08-21T19:45:40;4.17;;;1.70;;
11847;SDS011;5983;49.966;8.052;2022-08-21T19:48:07;5.57;;;1.33;;
11847;SDS011;5983;49.966;8.052;2022-08-21T19:50:35;4.43;;;1.13;;
11847;SDS011;5983;49.966;8.052;2022-08-21T19:53:02;3.60;;;1.40;;
11847;SDS011;5983;49.966;8.052;2022-08-21T19:55:29;2.47;;;1.00;;
11847;SDS011;5983;49.966;8.052;2022-08-21T19:57:56;2.77;;;1.23;;
11847;SDS011;5983;49.966;8.052;2022-08-21T20:00:23;5.60;;;1.10;;
11847;SDS011;5983;49.966;8.052;2022-08-21T20:02:52;5.03;;;1.27;;
11847;SDS011;5983;49.966;8.052;2022-08-21T20:05:19;2.27;;;1.17;;
11847;SDS011;5983;49.966;8.052;2022-08-21T20:07:47;2.40;;;1.10;;
11847;SDS011;5983;49.966;8.052;2022-08-21T20:10:14;3.47;;;1.37;;
11847;SDS011;5983;49.966;8.052;2022-08-21T20:12:41;5.17;;;1.43;;
11847;SDS011;5983;49.966;8.052;2022-08-21T20:15:17;4.03;;;0.90;;
11847;SDS011;5983;49.966;8.052;2022-08-21T20:17:48;2.87;;;1.13;;
11847;SDS011;5983;49.966;8.052;2022-08-21T20:20:17;2.77;;;1.00;;
11847;SDS011;5983;49.966;8.052;2022-08-21T20:22:47;3.20;;;1.10;;
11847;SDS011;5983;49.966;8.052;2022-08-21T20:25:14;4.10;;;1.13;;
11847;SDS011;5983;49.966;8.052;2022-08-21T20:27:42;1.50;;;0.90;;
11847;SDS011;5983;49.966;8.052;2022-08-21T20:30:09;3.20;;;1.20;;
11847;SDS011;5983;49.966;8.052;2022-08-21T20:32:37;1.13;;;0.90;;
11847;SDS011;5983;49.966;8.052;2022-08-21T20:35:05;5.43;;;1.20;;
11847;SDS011;5983;49.966;8.052;2022-08-21T20:37:34;3.00;;;1.23;;
11847;SDS011;5983;49.966;8.052;2022-08-21T20:40:01;2.07;;;1.13;;
11847;SDS011;5983;49.966;8.052;2022-08-21T20:42:34;2.00;;;0.90;;
11847;SDS011;5983;49.966;8.052;2022-08-21T20:45:03;1.60;;;1.17;;
11847;SDS011;5983;49.966;8.052;2022-08-21T20:47:31;2.43;;;1.00;;
11847;SDS011;5983;49.966;8.052;2022-08-21T20:49:59;4.10;;;1.00;;
11847;SDS011;5983;49.966;8.052;2022-08-21T20:52:33;3.63;;;1.33;;
11847;SDS011;5983;49.966;8.052;2022-08-21T20:55:05;2.23;;;0.90;;
11847;SDS011;5983;49.966;8.052;2022-08-21T20:57:38;3.53;;;0.90;;
11847;SDS011;5983;49.966;8.052;2022-08-21T21:00:14;4.97;;;1.23;;
11847;SDS011;5983;49.966;8.052;2022-08-21T21:02:47;1.17;;;0.90;;
11847;SDS011;5983;49.966;8.052;2022-08-21T21:05:22;2.03;;;0.90;;
11847;SDS011;5983;49.966;8.052;2022-08-21T21:08:06;1.53;;;1.00;;
11847;SDS011;5983;49.966;8.052;2022-08-21T21:10:50;2.27;;;1.20;;
11847;SDS011;5983;49.966;8.052;2022-08-21T21:13:51;4.20;;;0.80;;
11847;SDS011;5983;49.966;8.052;2022-08-21T21:17:01;4.97;;;1.20;;
11847;SDS011;5983;49.966;8.052;2022-08-21T21:20:16;4.07;;;1.13;;
11847;SDS011;5983;49.966;8.052;2022-08-21T21:23:15;2.23;;;1.10;;
11847;SDS011;5983;49.966;8.052;2022-08-21T21:25:53;2.47;;;1.10;;
11847;SDS011;5983;49.966;8.052;2022-08-21T21:28:33;1.73;;;1.00;;
11847;SDS011;5983;49.966;8.052;2022-08-21T21:31:10;2.37;;;1.13;;
11847;SDS011;5983;49.966;8.052;2022-08-21T21:33:38;1.33;;;1.10;;
11847;SDS011;5983;49.966;8.052;2022-08-21T21:36:07;1.53;;;1.10;;
11847;SDS011;5983;49.966;8.052;2022-08-21T21:38:50;3.57;;;1.27;;
11847;SDS011;5983;49.966;8.052;2022-08-21T21:41:29;3.20;;;1.20;;
11847;SDS011;5983;49.966;8.052;2022-08-21T21:47:14;4.23;;;1.40;;
11847;SDS011;5983;49.966;8.052;2022-08-21T21:50:03;2.40;;;1.00;;
11847;SDS011;5983;49.966;8.052;2022-08-21T21:52:54;2.67;;;0.90;;
11847;SDS011;5983;49.966;8.052;2022-08-21T21:55:46;1.17;;;0.73;;
11847;SDS011;5983;49.966;8.052;2022-08-21T21:58:36;2.40;;;0.97;;
11847;SDS011;5983;49.966;8.052;2022-08-21T22:01:22;3.70;;;1.07;;
11847;SDS011;5983;49.966;8.052;2022-08-21T22:04:03;1.43;;;1.00;;
11847;SDS011;5983;49.966;8.052;2022-08-21T22:06:43;1.73;;;0.80;;
11847;SDS011;5983;49.966;8.052;2022-08-21T22:09:19;1.67;;;1.03;;
11847;SDS011;5983;49.966;8.052;2022-08-21T22:12:13;1.53;;;0.90;;
11847;SDS011;5983;49.966;8.052;2022-08-21T22:14:55;2.47;;;1.00;;
11847;SDS011;5983;49.966;8.052;2022-08-21T22:17:30;4.63;;;0.90;;
11847;SDS011;5983;49.966;8.052;2022-08-21T22:20:10;1.53;;;0.80;;
11847;SDS011;5983;49.966;8.052;2022-08-21T22:22:46;1.90;;;0.90;;
11847;SDS011;5983;49.966;8.052;2022-08-21T22:25:17;1.60;;;1.03;;
11847;SDS011;5983;49.966;8.052;2022-08-21T22:27:51;1.27;;;0.90;;
11847;SDS011;5983;49.966;8.052;2022-08-21T22:30:37;3.07;;;0.80;;
11847;SDS011;5983;49.966;8.052;2022-08-21T22:33:11;1.53;;;1.13;;
11847;SDS011;5983;49.966;8.052;2022-08-21T22:35:43;4.10;;;1.17;;
11847;SDS011;5983;49.966;8.052;2022-08-21T22:38:15;2.87;;;1.00;;
11847;SDS011;5983;49.966;8.052;2022-08-21T22:41:07;1.63;;;0.77;;
11847;SDS011;5983;49.966;8.052;2022-08-21T22:43:50;4.07;;;1.13;;
11847;SDS011;5983;49.966;8.052;2022-08-21T22:46:24;2.47;;;0.90;;
11847;SDS011;5983;49.966;8.052;2022-08-21T22:49:01;0.77;;;0.77;;
11847;SDS011;5983;49.966;8.052;2022-08-21T22:51:36;3.03;;;0.93;;
11847;SDS011;5983;49.966;8.052;2022-08-21T22:54:08;1.43;;;0.90;;
11847;SDS011;5983;49.966;8.052;2022-08-21T22:56:40;2.10;;;0.83;;
11847;SDS011;5983;49.966;8.052;2022-08-21T22:59:20;4.07;;;1.17;;
11847;SDS011;5983;49.966;8.052;2022-08-21T23:01:55;2.53;;;1.03;;
11847;SDS011;5983;49.966;8.052;2022-08-21T23:04:26;2.00;;;1.17;;
11847;SDS011;5983;49.966;8.052;2022-08-21T23:06:54;4.80;;;1.30;;
11847;SDS011;5983;49.966;8.052;2022-08-21T23:09:29;0.70;;;0.63;;
11847;SDS011;5983;49.966;8.052;2022-08-21T23:12:00;0.73;;;0.73;;
11847;SDS011;5983;49.966;8.052;2022-08-21T23:14:31;2.67;;;0.90;;
11847;SDS011;5983;49.966;8.052;2022-08-21T23:17:00;2.20;;;0.80;;
11847;SDS011;5983;49.966;8.052;2022-08-21T23:19:36;1.30;;;0.83;;
11847;SDS011;5983;49.966;8.052;2022-08-21T23:22:34;3.20;;;1.10;;
11847;SDS011;5983;49.966;8.052;2022-08-21T23:25:13;1.90;;;1.00;;
11847;SDS011;5983;49.966;8.052;2022-08-21T23:28:03;3.03;;;0.80;;
11847;SDS011;5983;49.966;8.052;2022-08-21T23:30:45;5.40;;;1.17;;
11847;SDS011;5983;49.966;8.052;2022-08-21T23:33:26;3.73;;;1.00;;
11847;SDS011;5983;49.966;8.052;2022-08-21T23:36:14;2.57;;;0.90;;
11847;SDS011;5983;49.966;8.052;2022-08-21T23:39:11;2.70;;;0.80;;
11847;SDS011;5983;49.966;8.052;2022-08-21T23:41:54;2.43;;;1.03;;
11847;SDS011;5983;49.966;8.052;2022-08-21T23:44:36;3.63;;;1.20;;
11847;SDS011;5983;49.966;8.052;2022-08-21T23:47:18;3.07;;;1.03;;
11847;SDS011;5983;49.966;8.052;2022-08-21T23:50:03;3.07;;;0.90;;
11847;SDS011;5983;49.966;8.052;2022-08-21T23:52:38;2.10;;;1.20;;
11847;SDS011;5983;49.966;8.052;2022-08-21T23:55:25;9.17;;;1.13;;
11847;SDS011;5983;49.966;8.052;2022-08-21T23:58:08;6.13;;;1.10;;
